Time;durP1;ratioP1;P1;durP2;ratioP2;P2;SDS_P1;SDS_P2;PMS_P1;PMS_P2;Temp;Humidity;BMP_temperature;BMP_pressure;BME280_temperature;BME280_humidity;BME280_pressure;Samples;Min_cycle;Max_cycle;Signal;HPM_P1;HPM_P2
2021/04/01 00:00:14;;;;;;;2.67;1.35;;;;;;;;;;4966698;28;20044;-54
2021/04/01 00:02:39;;;;;;;1.23;1.13;;;;;;;;;;4969514;28;20035;-56
2021/04/01 00:05:06;;;;;;;1.38;1.10;;;;;;;;;;4955989;28;20049;-54
2021/04/01 00:07:31;;;;;;;1.70;1.25;;;;;;;;;;4966740;28;20114;-54
2021/04/01 00:09:57;;;;;;;1.58;1.27;;;;;;;;;;4953759;28;20410;-54
2021/04/01 00:12:22;;;;;;;1.98;1.30;;;;;;;;;;4968847;28;20035;-55
2021/04/01 00:14:48;;;;;;;2.33;1.23;;;;;;;;;;4970911;28;20035;-54
2021/04/01 00:17:14;;;;;;;1.38;1.10;;;;;;;;;;4942075;28;20493;-55
2021/04/01 00:19:39;;;;;;;1.90;1.40;;;;;;;;;;4969354;28;20027;-55
2021/04/01 00:22:05;;;;;;;1.85;1.00;;;;;;;;;;4936762;28;20039;-56
2021/04/01 00:24:30;;;;;;;1.65;1.13;;;;;;;;;;4968915;28;20043;-54
2021/04/01 00:26:56;;;;;;;2.97;1.52;;;;;;;;;;4966297;28;20020;-55
2021/04/01 00:29:21;;;;;;;1.25;1.02;;;;;;;;;;4969574;28;20904;-55
2021/04/01 00:31:47;;;;;;;1.33;1.10;;;;;;;;;;4967474;28;20044;-55
2021/04/01 00:34:12;;;;;;;1.75;1.40;;;;;;;;;;4970737;28;20059;-53
2021/04/01 00:36:38;;;;;;;1.52;1.00;;;;;;;;;;4957565;28;20057;-55
2021/04/01 00:39:04;;;;;;;1.63;1.02;;;;;;;;;;4969893;28;20406;-56
2021/04/01 00:41:29;;;;;;;1.90;1.17;;;;;;;;;;4969072;28;20347;-54
2021/04/01 00:43:54;;;;;;;3.35;1.13;;;;;;;;;;4970704;28;20090;-55
2021/04/01 00:46:20;;;;;;;1.65;1.13;;;;;;;;;;4970149;28;20502;-56
2021/04/01 00:48:45;;;;;;;2.10;1.38;;;;;;;;;;4952370;28;20041;-53
2021/04/01 00:51:11;;;;;;;1.25;1.00;;;;;;;;;;4952796;28;20143;-55
2021/04/01 00:53:38;;;;;;;1.30;1.00;;;;;;;;;;4937438;28;20094;-55
2021/04/01 00:56:04;;;;;;;1.40;1.10;;;;;;;;;;4952352;28;20094;-53
2021/04/01 00:58:29;;;;;;;2.00;0.98;;;;;;;;;;4952842;28;20589;-55
2021/04/01 01:01:16;;;;;;;1.45;1.17;;;;;;;;;;4951108;28;20114;-54
2021/04/01 01:03:42;;;;;;;2.15;1.20;;;;;;;;;;4957235;28;20035;-53
2021/04/01 01:06:07;;;;;;;1.65;0.85;;;;;;;;;;4951651;28;20031;-55
2021/04/01 01:08:33;;;;;;;1.80;1.08;;;;;;;;;;4966082;28;20027;-55
2021/04/01 01:10:58;;;;;;;1.20;1.10;;;;;;;;;;4969807;28;20043;-55
2021/04/01 01:13:24;;;;;;;1.42;1.02;;;;;;;;;;4969475;28;20041;-55
2021/04/01 01:15:49;;;;;;;1.40;1.10;;;;;;;;;;4968901;28;20039;-55
2021/04/01 01:18:15;;;;;;;1.25;1.05;;;;;;;;;;4952596;28;20407;-54
2021/04/01 01:20:40;;;;;;;1.40;1.10;;;;;;;;;;4970819;28;20072;-56
2021/04/01 01:23:06;;;;;;;1.85;1.10;;;;;;;;;;4968643;28;20035;-55
2021/04/01 01:25:31;;;;;;;1.40;1.00;;;;;;;;;;4967944;28;20039;-55
2021/04/01 01:27:57;;;;;;;1.20;1.00;;;;;;;;;;4968716;28;20018;-55
2021/04/01 01:30:22;;;;;;;1.75;1.20;;;;;;;;;;4934805;28;20411;-54
2021/04/01 01:32:56;;;;;;;1.98;1.00;;;;;;;;;;4968885;28;20039;-55
2021/04/01 01:35:27;;;;;;;1.40;1.10;;;;;;;;;;4968248;28;20075;-54
2021/04/01 01:37:54;;;;;;;1.60;1.10;;;;;;;;;;4954655;28;20066;-55
2021/04/01 01:40:21;;;;;;;1.40;1.10;;;;;;;;;;4971194;28;20042;-54
2021/04/01 01:42:47;;;;;;;2.08;1.00;;;;;;;;;;4970613;28;20023;-54
2021/04/01 01:45:14;;;;;;;1.10;1.00;;;;;;;;;;4942961;28;20040;-55
2021/04/01 01:47:39;;;;;;;1.38;1.00;;;;;;;;;;4941835;28;20154;-56
2021/04/01 01:50:05;;;;;;;1.83;1.00;;;;;;;;;;4972703;28;20401;-56
2021/04/01 01:52:31;;;;;;;1.58;1.00;;;;;;;;;;4952824;28;20833;-56
2021/04/01 01:54:56;;;;;;;2.53;1.15;;;;;;;;;;4971475;28;20075;-55
2021/04/01 01:57:22;;;;;;;1.48;1.20;;;;;;;;;;4955089;28;20047;-53
2021/04/01 01:59:47;;;;;;;1.00;0.85;;;;;;;;;;4971080;28;20094;-54
2021/04/01 02:02:13;;;;;;;1.70;1.00;;;;;;;;;;4972984;28;20502;-53
2021/04/01 02:04:39;;;;;;;1.35;0.90;;;;;;;;;;4970375;28;20409;-55
2021/04/01 02:07:04;;;;;;;2.33;0.90;;;;;;;;;;4970881;28;20066;-54
2021/04/01 02:09:30;;;;;;;1.58;1.08;;;;;;;;;;4969277;28;20039;-55
2021/04/01 02:11:55;;;;;;;2.45;1.00;;;;;;;;;;4971501;28;20105;-56
2021/04/01 02:14:21;;;;;;;1.05;0.90;;;;;;;;;;4971398;28;20090;-56
2021/04/01 02:16:55;;;;;;;1.73;1.00;;;;;;;;;;4971440;28;20035;-54
2021/04/01 02:19:21;;;;;;;1.73;1.00;;;;;;;;;;4972137;28;20494;-54
2021/04/01 02:21:47;;;;;;;1.10;0.95;;;;;;;;;;4973237;28;20483;-52
2021/04/01 02:24:12;;;;;;;1.60;1.00;;;;;;;;;;4971894;28;20036;-56
2021/04/01 02:26:38;;;;;;;1.98;1.10;;;;;;;;;;4953877;28;20044;-56
2021/04/01 02:29:03;;;;;;;1.20;1.10;;;;;;;;;;4973071;28;20390;-56
2021/04/01 02:31:29;;;;;;;1.45;1.02;;;;;;;;;;4945532;28;20482;-52
2021/04/01 02:33:54;;;;;;;1.20;1.10;;;;;;;;;;4972364;28;20084;-55
2021/04/01 02:36:20;;;;;;;1.45;1.00;;;;;;;;;;4972593;28;20065;-55
2021/04/01 02:38:46;;;;;;;1.27;1.00;;;;;;;;;;4935180;28;20040;-57
2021/04/01 02:41:11;;;;;;;1.10;0.98;;;;;;;;;;4971304;28;20035;-55
2021/04/01 02:43:37;;;;;;;0.90;0.77;;;;;;;;;;4972823;28;21079;-56
2021/04/01 02:46:03;;;;;;;1.02;0.90;;;;;;;;;;4955876;28;20031;-55
2021/04/01 02:48:28;;;;;;;1.02;0.93;;;;;;;;;;4954293;28;20074;-56
2021/04/01 02:50:54;;;;;;;1.48;1.08;;;;;;;;;;4970669;28;20053;-56
2021/04/01 02:53:20;;;;;;;0.85;0.82;;;;;;;;;;4954276;28;20055;-56
2021/04/01 02:55:46;;;;;;;1.13;0.90;;;;;;;;;;4953410;28;20143;-57
2021/04/01 02:58:11;;;;;;;1.15;0.95;;;;;;;;;;4951595;28;20130;-55
2021/04/01 03:00:37;;;;;;;1.08;0.90;;;;;;;;;;4969404;28;20099;-57
2021/04/01 03:03:14;;;;;;;2.97;1.20;;;;;;;;;;4969381;28;20040;-56
2021/04/01 03:05:40;;;;;;;2.08;1.10;;;;;;;;;;4970151;28;20027;-56
2021/04/01 03:08:06;;;;;;;1.30;0.90;;;;;;;;;;4952371;28;20040;-55
2021/04/01 03:10:31;;;;;;;1.20;1.00;;;;;;;;;;4966444;28;20043;-52
2021/04/01 03:12:57;;;;;;;1.05;0.80;;;;;;;;;;4953719;28;20512;-54
2021/04/01 03:15:22;;;;;;;0.98;0.73;;;;;;;;;;4969881;28;20498;-56
2021/04/01 03:17:48;;;;;;;1.50;0.75;;;;;;;;;;4971913;28;20046;-55
2021/04/01 03:20:14;;;;;;;0.90;0.75;;;;;;;;;;4941108;28;20194;-57
2021/04/01 03:22:39;;;;;;;2.20;0.90;;;;;;;;;;4957165;28;20616;-56
2021/04/01 03:25:06;;;;;;;1.70;0.90;;;;;;;;;;4972293;28;20039;-56
2021/04/01 03:27:32;;;;;;;1.13;0.80;;;;;;;;;;4955134;28;20035;-54
2021/04/01 03:30:06;;;;;;;1.27;0.80;;;;;;;;;;4955708;28;20094;-55
2021/04/01 03:32:36;;;;;;;1.80;0.90;;;;;;;;;;4951130;28;20039;-55
2021/04/01 03:35:04;;;;;;;1.20;0.90;;;;;;;;;;4940947;28;20031;-56
2021/04/01 03:37:29;;;;;;;1.42;1.05;;;;;;;;;;4949978;28;20062;-55
2021/04/01 03:39:55;;;;;;;1.13;0.90;;;;;;;;;;4970517;28;20050;-56
2021/04/01 03:42:21;;;;;;;0.80;0.75;;;;;;;;;;4968822;28;20039;-55
2021/04/01 03:44:46;;;;;;;1.00;0.88;;;;;;;;;;4973350;28;20039;-56
2021/04/01 03:47:12;;;;;;;1.30;1.00;;;;;;;;;;4971610;28;20035;-56
2021/04/01 03:49:38;;;;;;;1.30;1.00;;;;;;;;;;4953359;28;20439;-56
2021/04/01 03:52:04;;;;;;;1.35;0.90;;;;;;;;;;4970235;28;20043;-56
2021/04/01 03:54:29;;;;;;;0.70;0.70;;;;;;;;;;4954446;28;20040;-54
2021/04/01 03:56:55;;;;;;;1.30;0.95;;;;;;;;;;4968541;28;20036;-55
2021/04/01 03:59:26;;;;;;;1.70;0.73;;;;;;;;;;4953180;28;20039;-55
2021/04/01 04:14:43;;;;;;;1.08;0.88;;;;;;;;;;4966904;28;20039;-55
2021/04/01 04:17:08;;;;;;;1.00;0.90;;;;;;;;;;4967567;28;20044;-53
2021/04/01 04:19:34;;;;;;;0.98;0.80;;;;;;;;;;4970551;28;20490;-55
2021/04/01 04:22:00;;;;;;;1.25;0.90;;;;;;;;;;4969119;28;20802;-55
2021/04/01 04:24:25;;;;;;;1.45;0.80;;;;;;;;;;4970253;28;20039;-53
2021/04/01 04:26:51;;;;;;;1.40;0.90;;;;;;;;;;4966563;28;20067;-56
2021/04/01 04:29:17;;;;;;;1.48;0.93;;;;;;;;;;4968998;28;20039;-55
2021/04/01 04:31:43;;;;;;;0.85;0.70;;;;;;;;;;4968733;28;20398;-54
2021/04/01 04:34:09;;;;;;;0.88;0.85;;;;;;;;;;4952239;28;20034;-55
2021/04/01 04:36:34;;;;;;;1.20;0.80;;;;;;;;;;4965802;28;20040;-56
2021/04/01 04:38:59;;;;;;;1.30;0.80;;;;;;;;;;4952622;28;20046;-55
2021/04/01 04:41:25;;;;;;;1.02;0.80;;;;;;;;;;4969933;28;20042;-55
2021/04/01 04:43:50;;;;;;;0.98;0.77;;;;;;;;;;4950105;28;20031;-56
2021/04/01 04:46:16;;;;;;;1.05;0.90;;;;;;;;;;4968407;28;20031;-55
2021/04/01 04:48:41;;;;;;;1.05;0.90;;;;;;;;;;4968282;28;20044;-55
2021/04/01 04:51:07;;;;;;;1.17;0.98;;;;;;;;;;4964394;28;20035;-53
2021/04/01 04:53:33;;;;;;;0.80;0.70;;;;;;;;;;4967075;28;20031;-55
2021/04/01 04:56:06;;;;;;;1.02;0.80;;;;;;;;;;4953331;28;20502;-55
2021/04/01 05:01:11;;;;;;;1.17;0.90;;;;;;;;;;4938975;28;20038;-57
2021/04/01 05:06:51;;;;;;;1.17;0.70;;;;;;;;;;4971487;28;20036;-55
2021/04/01 05:09:06;;;;;;;0.90;0.73;;;;;;;;;;4971573;28;20565;-55
2021/04/01 05:11:33;;;;;;;0.70;0.70;;;;;;;;;;4955060;28;20039;-54
2021/04/01 05:14:01;;;;;;;0.85;0.80;;;;;;;;;;4952795;28;20074;-55
2021/04/01 05:16:27;;;;;;;0.90;0.80;;;;;;;;;;4970815;28;20042;-57
2021/04/01 05:18:53;;;;;;;2.33;0.80;;;;;;;;;;4954487;28;20046;-54
2021/04/01 05:21:20;;;;;;;1.00;0.68;;;;;;;;;;4911999;28;20149;-55
2021/04/01 05:23:51;;;;;;;0.80;0.80;;;;;;;;;;4910832;28;20153;-56
2021/04/01 05:26:34;;;;;;;1.00;0.75;;;;;;;;;;4971164;28;20128;-55
2021/04/01 05:29:09;;;;;;;4.63;0.93;;;;;;;;;;4958426;28;20059;-55
2021/04/01 05:31:37;;;;;;;1.25;0.90;;;;;;;;;;4974198;28;20042;-56
2021/04/01 05:34:03;;;;;;;1.23;1.05;;;;;;;;;;4973360;28;20034;-56
2021/04/01 05:36:30;;;;;;;1.38;0.80;;;;;;;;;;4971149;28;20490;-55
2021/04/01 05:38:58;;;;;;;10.88;8.07;;;;;;;;;;4972055;28;20030;-64
2021/04/01 05:41:27;;;;;;;10.85;7.50;;;;;;;;;;4953194;28;20043;-63
2021/04/01 05:44:07;;;;;;;10.65;7.88;;;;;;;;;;4970499;28;20035;-62
2021/04/01 05:49:09;;;;;;;10.43;7.30;;;;;;;;;;4950373;28;20082;-62
2021/04/01 05:51:55;;;;;;;10.10;7.18;;;;;;;;;;4941733;28;20054;-63
2021/04/01 06:02:36;;;;;;;12.23;7.72;;;;;;;;;;4955382;28;20052;-62
2021/04/01 06:04:53;;;;;;;;;;;;;;;;;;4944745;28;20142;-62
2021/04/01 06:07:26;;;;;;;11.68;7.85;;;;;;;;;;4972010;28;19969;-62
2021/04/01 06:09:55;;;;;;;11.75;7.95;;;;;;;;;;4968371;28;20103;-62
2021/04/01 06:12:20;;;;;;;12.10;8.30;;;;;;;;;;4971269;28;20580;-62
2021/04/01 06:14:58;;;;;;;11.85;7.95;;;;;;;;;;4956786;28;20043;-62
2021/04/01 06:17:30;;;;;;;13.32;8.43;;;;;;;;;;4972283;28;20123;-62
2021/04/01 06:20:00;;;;;;;13.10;8.70;;;;;;;;;;4971074;28;20130;-62
2021/04/01 06:22:25;;;;;;;11.30;8.25;;;;;;;;;;4973597;28;20036;-62
2021/04/01 06:24:51;;;;;;;11.02;8.13;;;;;;;;;;4971740;28;20043;-62
2021/04/01 06:27:31;;;;;;;10.70;7.60;;;;;;;;;;4955065;28;20063;-62
2021/04/01 06:30:22;;;;;;;5.22;1.65;;;;;;;;;;4970969;28;20109;-62
2021/04/01 06:33:04;;;;;;;5.82;1.90;;;;;;;;;;4955564;28;20150;-62
2021/04/01 06:35:40;;;;;;;9.05;2.35;;;;;;;;;;4967932;28;20139;-62
2021/04/01 06:40:38;;;;;;;10.75;2.53;;;;;;;;;;4950282;28;20046;-62
2021/04/01 06:43:48;;;;;;;7.18;2.35;;;;;;;;;;4970163;28;20035;-62
2021/04/01 06:46:15;;;;;;;12.05;8.77;;;;;;;;;;4957189;28;20502;-63
2021/04/01 06:49:16;;;;;;;11.88;8.55;;;;;;;;;;4954943;28;20034;-63
2021/04/01 06:51:36;;;;;;;11.95;8.70;;;;;;;;;;4942599;28;20083;-62
2021/04/01 06:54:17;;;;;;;12.00;8.48;;;;;;;;;;4939348;28;20086;-62
2021/04/01 06:57:05;;;;;;;12.48;9.25;;;;;;;;;;4954446;28;20039;-62
2021/04/01 06:59:50;;;;;;;12.63;9.38;;;;;;;;;;4970994;28;20035;-67
2021/04/01 07:04:42;;;;;;;9.80;3.28;;;;;;;;;;4937524;28;20031;-62
2021/04/01 07:07:17;;;;;;;14.07;3.40;;;;;;;;;;4922002;28;20035;-63
2021/04/01 07:10:08;;;;;;;9.57;3.20;;;;;;;;;;4955673;28;20174;-63
2021/04/01 07:12:36;;;;;;;9.00;3.00;;;;;;;;;;4971403;28;20065;-63
2021/04/01 07:15:08;;;;;;;13.50;3.85;;;;;;;;;;4950022;28;20170;-62
2021/04/01 07:17:43;;;;;;;46.38;8.15;;;;;;;;;;4970229;28;21271;-62
2021/04/01 07:31:14;;;;;;;24.90;5.95;;;;;;;;;;4954762;28;20403;-62
2021/04/01 07:47:41;;;;;;;14.77;10.38;;;;;;;;;;4961555;28;20052;-63
2021/04/01 07:50:09;;;;;;;16.63;11.40;;;;;;;;;;4968768;28;20089;-62
2021/04/01 07:52:35;;;;;;;17.85;12.35;;;;;;;;;;4970501;28;20102;-62
2021/04/01 07:57:58;;;;;;;19.52;12.80;;;;;;;;;;4952254;28;20050;-62
2021/04/01 08:00:40;;;;;;;18.02;12.27;;;;;;;;;;4939607;28;20036;-62
2021/04/01 08:03:50;;;;;;;;;;;;;;;;;;4942429;28;20037;-65
2021/04/01 08:06:04;;;;;;;14.23;4.28;;;;;;;;;;4954111;28;19981;-65
2021/04/01 08:08:30;;;;;;;11.95;4.13;;;;;;;;;;4953427;28;20031;-63
2021/04/01 08:11:00;;;;;;;15.48;4.63;;;;;;;;;;4939415;28;20031;-62
2021/04/01 08:13:30;;;;;;;14.30;4.10;;;;;;;;;;4950784;28;20039;-62
2021/04/01 08:15:59;;;;;;;13.45;3.70;;;;;;;;;;4954184;28;20523;-63
2021/04/01 08:18:29;;;;;;;11.65;3.67;;;;;;;;;;4938356;28;20035;-64
2021/04/01 08:20:58;;;;;;;13.60;3.85;;;;;;;;;;4939246;28;20581;-63
2021/04/01 08:23:29;;;;;;;10.95;3.67;;;;;;;;;;4967322;28;20894;-63
2021/04/01 08:26:23;;;;;;;12.05;3.78;;;;;;;;;;4968821;28;21129;-63
2021/04/01 08:36:44;;;;;;;11.95;3.85;;;;;;;;;;4953893;28;20039;-64
2021/04/01 08:39:11;;;;;;;11.75;3.40;;;;;;;;;;4952986;28;20042;-63
2021/04/01 08:41:43;;;;;;;12.15;3.00;;;;;;;;;;4949839;28;20028;-64
2021/04/01 08:44:18;;;;;;;10.32;3.38;;;;;;;;;;4951971;28;20036;-64
2021/04/01 08:46:50;;;;;;;11.13;2.90;;;;;;;;;;4935758;28;20950;-63
2021/04/01 08:49:28;;;;;;;12.30;3.20;;;;;;;;;;4964974;28;20042;-63
2021/04/01 08:52:12;;;;;;;9.55;3.10;;;;;;;;;;4967625;28;20135;-63
2021/04/01 08:54:43;;;;;;;10.23;3.13;;;;;;;;;;4951182;28;20097;-63
2021/04/01 08:57:15;;;;;;;8.02;2.80;;;;;;;;;;4951449;28;20035;-63
2021/04/01 09:00:02;;;;;;;9.32;2.83;;;;;;;;;;4950483;28;20043;-64
2021/04/01 09:02:28;;;;;;;7.82;2.88;;;;;;;;;;4954555;28;20114;-64
2021/04/01 09:04:55;;;;;;;8.90;3.13;;;;;;;;;;4969737;28;20031;-64
2021/04/01 09:07:26;;;;;;;10.05;2.70;;;;;;;;;;4951531;28;20038;-65
2021/04/01 09:09:53;;;;;;;10.60;3.17;;;;;;;;;;4953337;28;20070;-64
2021/04/01 09:12:38;;;;;;;8.25;2.88;;;;;;;;;;4937228;28;20082;-65
2021/04/01 09:15:06;;;;;;;7.90;2.80;;;;;;;;;;4957079;28;20044;-65
2021/04/01 09:17:35;;;;;;;9.52;2.90;;;;;;;;;;4968401;28;20093;-64
2021/04/01 09:20:15;;;;;;;9.20;2.78;;;;;;;;;;4952078;28;20042;-64
2021/04/01 09:23:08;;;;;;;7.25;2.70;;;;;;;;;;4950435;28;20027;-65
2021/04/01 09:25:35;;;;;;;8.38;2.63;;;;;;;;;;4949894;28;20054;-64
2021/04/01 09:28:02;;;;;;;9.88;2.95;;;;;;;;;;4950171;28;20582;-64
2021/04/01 09:30:28;;;;;;;7.07;2.88;;;;;;;;;;4968209;28;20524;-64
2021/04/01 09:32:56;;;;;;;7.05;2.40;;;;;;;;;;4939623;28;20038;-64
2021/04/01 09:35:22;;;;;;;8.68;2.97;;;;;;;;;;4935634;28;20226;-65
2021/04/01 09:37:57;;;;;;;8.98;3.05;;;;;;;;;;4936692;28;20445;-65
2021/04/01 09:40:30;;;;;;;8.02;2.60;;;;;;;;;;4940025;28;20079;-64
2021/04/01 09:43:06;;;;;;;10.10;2.75;;;;;;;;;;4935879;28;20031;-65
2021/04/01 09:45:32;;;;;;;6.88;2.65;;;;;;;;;;4953300;28;20075;-64
2021/04/01 09:48:02;;;;;;;6.57;2.47;;;;;;;;;;4965797;28;20840;-65
2021/04/01 09:50:44;;;;;;;8.18;2.65;;;;;;;;;;4968362;28;20342;-65
2021/04/01 09:53:15;;;;;;;;;;;;;;;;;;4967735;28;20035;-65
2021/04/01 09:55:42;;;;;;;6.80;3.10;;;;;;;;;;4969661;28;19922;-65
2021/04/01 09:58:29;;;;;;;6.38;2.50;;;;;;;;;;4955202;28;20035;-65
2021/04/01 10:03:48;;;;;;;8.02;2.90;;;;;;;;;;4970725;28;20765;-64
2021/04/01 10:06:38;;;;;;;6.33;2.50;;;;;;;;;;4969114;28;20498;-63
2021/04/01 10:09:17;;;;;;;9.10;2.92;;;;;;;;;;4954569;28;20243;-63
2021/04/01 10:11:43;;;;;;;8.40;3.17;;;;;;;;;;4969187;28;20047;-63
2021/04/01 10:14:09;;;;;;;8.57;3.33;;;;;;;;;;4955780;28;20118;-63
2021/04/01 10:16:36;;;;;;;7.57;3.00;;;;;;;;;;4956134;28;20083;-63
2021/04/01 10:19:02;;;;;;;11.73;3.20;;;;;;;;;;4951738;28;20031;-63
2021/04/01 10:21:28;;;;;;;7.53;2.67;;;;;;;;;;4954882;28;20032;-63
2021/04/01 10:24:00;;;;;;;7.68;2.97;;;;;;;;;;4969691;28;20039;-66
2021/04/01 10:26:30;;;;;;;;;;;;;;;;;;4971221;28;20035;-64
2021/04/01 10:29:14;;;;;;;7.55;2.65;;;;;;;;;;4953566;28;19973;-63
2021/04/01 10:31:45;;;;;;;7.95;2.90;;;;;;;;;;4957695;28;20103;-63
2021/04/01 10:34:41;;;;;;;7.90;3.10;;;;;;;;;;4952519;28;20035;-64
2021/04/01 10:37:08;;;;;;;6.72;2.65;;;;;;;;;;4968574;28;20036;-64
2021/04/01 10:39:36;;;;;;;8.30;3.30;;;;;;;;;;4971223;28;20038;-64
2021/04/01 10:42:03;;;;;;;8.73;3.20;;;;;;;;;;4955509;28;20042;-64
2021/04/01 10:44:29;;;;;;;7.80;2.97;;;;;;;;;;4955737;28;20053;-64
2021/04/01 10:46:55;;;;;;;9.18;2.90;;;;;;;;;;4927766;28;20054;-63
2021/04/01 10:49:23;;;;;;;7.90;3.10;;;;;;;;;;4972407;28;20039;-64
2021/04/01 10:51:55;;;;;;;7.55;2.72;;;;;;;;;;4956358;28;20031;-63
2021/04/01 10:54:21;;;;;;;8.20;3.47;;;;;;;;;;4971067;28;20098;-64
2021/04/01 10:56:53;;;;;;;7.18;2.70;;;;;;;;;;4968153;28;20039;-63
2021/04/01 10:59:39;;;;;;;8.65;2.95;;;;;;;;;;4953642;28;20485;-63
2021/04/01 11:02:13;;;;;;;8.07;2.90;;;;;;;;;;4953940;28;20122;-64
2021/04/01 11:04:40;;;;;;;7.10;2.83;;;;;;;;;;4968377;28;20059;-64
2021/04/01 11:07:05;;;;;;;7.22;2.95;;;;;;;;;;4954484;28;20880;-64
2021/04/01 11:09:32;;;;;;;7.82;2.60;;;;;;;;;;4967281;28;20031;-63
2021/04/01 11:12:18;;;;;;;6.53;2.47;;;;;;;;;;4954374;28;20562;-63
2021/04/01 11:14:53;;;;;;;8.00;3.00;;;;;;;;;;4933707;28;20047;-63
2021/04/01 11:17:23;;;;;;;5.72;2.47;;;;;;;;;;4955476;28;20040;-64
2021/04/01 11:19:51;;;;;;;6.70;2.55;;;;;;;;;;4952362;28;20094;-64
2021/04/01 11:22:16;;;;;;;5.78;2.42;;;;;;;;;;4957509;28;20055;-64
2021/04/01 11:24:42;;;;;;;6.15;2.50;;;;;;;;;;4951801;28;20035;-63
2021/04/01 11:27:19;;;;;;;6.40;2.65;;;;;;;;;;4953489;28;20122;-64
2021/04/01 11:29:52;;;;;;;6.57;2.60;;;;;;;;;;4968873;28;20039;-64
2021/04/01 11:32:23;;;;;;;5.93;2.15;;;;;;;;;;4941466;28;20130;-64
2021/04/01 11:34:50;;;;;;;9.37;2.83;;;;;;;;;;4969499;28;20501;-64
2021/04/01 11:37:20;;;;;;;6.22;2.78;;;;;;;;;;4940109;28;20122;-64
2021/04/01 11:39:48;;;;;;;7.72;2.90;;;;;;;;;;4954421;28;20036;-64
2021/04/01 11:42:16;;;;;;;4.50;2.20;;;;;;;;;;4955138;28;20033;-64
2021/04/01 11:44:41;;;;;;;4.82;2.15;;;;;;;;;;4954202;28;20138;-64
2021/04/01 11:47:20;;;;;;;5.97;2.72;;;;;;;;;;4937664;28;20433;-64
2021/04/01 11:49:47;;;;;;;6.65;2.53;;;;;;;;;;4955700;28;20441;-64
2021/04/01 11:52:12;;;;;;;6.47;2.80;;;;;;;;;;4937260;28;20051;-64
2021/04/01 11:54:38;;;;;;;5.85;2.40;;;;;;;;;;4952758;28;20114;-64
2021/04/01 11:57:21;;;;;;;7.35;2.17;;;;;;;;;;4937566;28;20039;-64
2021/04/01 12:00:02;;;;;;;4.22;2.13;;;;;;;;;;4952220;28;20038;-63
2021/04/01 12:02:52;;;;;;;5.60;2.58;;;;;;;;;;4965562;28;20071;-64
2021/04/01 12:05:18;;;;;;;6.35;2.75;;;;;;;;;;4954986;28;20593;-63
2021/04/01 12:07:43;;;;;;;6.28;2.25;;;;;;;;;;4951179;28;20042;-64
2021/04/01 12:10:11;;;;;;;7.57;2.55;;;;;;;;;;4937369;28;20038;-63
2021/04/01 12:12:37;;;;;;;6.47;2.60;;;;;;;;;;4952756;28;20503;-63
2021/04/01 12:15:03;;;;;;;4.45;2.15;;;;;;;;;;4965497;28;20039;-64
2021/04/01 12:17:33;;;;;;;4.57;2.10;;;;;;;;;;4969339;28;20085;-64
2021/04/01 12:19:58;;;;;;;5.57;2.55;;;;;;;;;;4970234;28;20102;-63
2021/04/01 12:22:29;;;;;;;5.03;2.40;;;;;;;;;;4967960;28;20685;-64
2021/04/01 12:24:56;;;;;;;5.57;2.43;;;;;;;;;;4953082;28;20039;-63
2021/04/01 12:27:31;;;;;;;4.85;2.42;;;;;;;;;;4967612;28;20235;-63
2021/04/01 12:29:56;;;;;;;5.50;2.28;;;;;;;;;;4952358;28;20063;-63
2021/04/01 12:32:32;;;;;;;3.60;2.00;;;;;;;;;;4940432;28;20063;-63
2021/04/01 12:35:10;;;;;;;6.50;2.40;;;;;;;;;;4952285;28;20487;-64
2021/04/01 12:37:35;;;;;;;6.15;2.25;;;;;;;;;;4929651;28;20043;-64
2021/04/01 12:40:15;;;;;;;6.38;2.38;;;;;;;;;;4969829;28;20036;-63
2021/04/01 12:42:40;;;;;;;4.15;1.92;;;;;;;;;;4968068;28;20618;-63
2021/04/01 12:45:31;;;;;;;5.20;2.45;;;;;;;;;;4970452;28;20031;-63
2021/04/01 12:48:14;;;;;;;5.28;2.50;;;;;;;;;;4950434;28;20960;-63
2021/04/01 12:50:41;;;;;;;5.00;2.20;;;;;;;;;;4941198;28;20059;-64
2021/04/01 12:53:07;;;;;;;5.97;2.30;;;;;;;;;;4952474;28;20050;-62
2021/04/01 12:55:49;;;;;;;3.30;2.05;;;;;;;;;;4951574;28;20051;-61
2021/04/01 12:58:34;;;;;;;3.80;2.00;;;;;;;;;;4969033;28;20038;-62
2021/04/01 13:01:10;;;;;;;4.57;1.88;;;;;;;;;;4953872;28;20476;-62
2021/04/01 13:03:36;;;;;;;4.53;2.00;;;;;;;;;;4956251;28;20042;-62
2021/04/01 13:06:08;;;;;;;3.72;1.80;;;;;;;;;;4966834;28;20041;-62
2021/04/01 13:11:11;;;;;;;3.92;1.90;;;;;;;;;;4971180;28;20482;-61
2021/04/01 13:13:36;;;;;;;4.28;1.88;;;;;;;;;;4954429;28;20039;-61
2021/04/01 13:16:02;;;;;;;5.68;2.00;;;;;;;;;;4970832;28;20027;-62
2021/04/01 13:18:27;;;;;;;4.18;1.92;;;;;;;;;;4949779;28;20592;-61
2021/04/01 13:20:54;;;;;;;4.65;2.00;;;;;;;;;;4968029;28;20036;-61
2021/04/01 13:23:31;;;;;;;3.08;1.65;;;;;;;;;;4937094;28;20042;-62
2021/04/01 13:25:57;;;;;;;4.65;1.80;;;;;;;;;;4940932;28;20521;-62
2021/04/01 13:28:22;;;;;;;3.00;1.45;;;;;;;;;;4948994;28;20126;-62
2021/04/01 13:30:50;;;;;;;3.05;1.50;;;;;;;;;;4952734;28;20043;-62
2021/04/01 13:33:36;;;;;;;3.08;1.55;;;;;;;;;;4974246;28;20085;-62
2021/04/01 13:36:11;;;;;;;4.03;1.48;;;;;;;;;;4958483;28;20074;-62
2021/04/01 13:38:41;;;;;;;3.08;1.58;;;;;;;;;;4945485;28;20561;-62
2021/04/01 13:41:09;;;;;;;3.53;1.50;;;;;;;;;;4971632;28;20070;-64
2021/04/01 13:43:35;;;;;;;3.22;1.40;;;;;;;;;;4938438;28;20031;-63
2021/04/01 13:46:01;;;;;;;3.85;1.33;;;;;;;;;;4951669;28;20043;-64
2021/04/01 13:48:28;;;;;;;3.45;1.70;;;;;;;;;;4955462;28;20506;-64
2021/04/01 13:51:05;;;;;;;4.32;1.63;;;;;;;;;;4952410;28;20102;-63
2021/04/01 13:56:12;;;;;;;2.33;1.20;;;;;;;;;;4968555;28;20178;-64
2021/04/01 14:09:35;;;;;;;1.75;1.20;;;;;;;;;;4959414;28;20091;-63
2021/04/01 14:12:09;;;;;;;2.13;1.00;;;;;;;;;;4953705;28;20035;-63
2021/04/01 14:14:35;;;;;;;2.17;1.27;;;;;;;;;;4945037;28;20039;-63
2021/04/01 14:17:02;;;;;;;3.25;1.30;;;;;;;;;;4972751;28;20478;-63
2021/04/01 14:19:27;;;;;;;1.13;0.85;;;;;;;;;;4953626;28;20035;-63
2021/04/01 14:22:01;;;;;;;1.50;0.90;;;;;;;;;;4952973;28;20035;-64
2021/04/01 14:24:30;;;;;;;1.00;0.70;;;;;;;;;;4940373;28;20126;-63
2021/04/01 14:29:47;;;;;;;2.13;0.90;;;;;;;;;;4970485;28;20035;-63
2021/04/01 14:32:13;;;;;;;1.13;0.60;;;;;;;;;;4972904;28;20046;-64
2021/04/01 14:34:39;;;;;;;1.80;0.90;;;;;;;;;;4969590;28;20106;-63
2021/04/01 14:37:04;;;;;;;0.80;0.70;;;;;;;;;;4942115;28;20632;-64
2021/04/01 14:39:31;;;;;;;1.42;0.80;;;;;;;;;;4939586;28;20090;-64
2021/04/01 14:42:04;;;;;;;1.08;0.73;;;;;;;;;;4971607;28;20035;-63
2021/04/01 14:44:33;;;;;;;1.70;0.98;;;;;;;;;;4957093;28;20027;-64
2021/04/01 14:46:59;;;;;;;2.28;0.82;;;;;;;;;;4970685;28;20106;-64
2021/04/01 14:49:25;;;;;;;0.95;0.73;;;;;;;;;;4968489;28;20863;-64
2021/04/01 14:51:51;;;;;;;1.17;0.82;;;;;;;;;;4972995;28;20042;-63
2021/04/01 14:54:22;;;;;;;1.33;0.80;;;;;;;;;;4952848;28;20036;-63
2021/04/01 14:56:51;;;;;;;1.77;0.80;;;;;;;;;;4951618;28;20039;-63
2021/04/01 14:59:20;;;;;;;1.33;0.88;;;;;;;;;;4968240;28;20042;-64
2021/04/01 15:01:46;;;;;;;1.10;0.70;;;;;;;;;;4939804;28;20035;-63
2021/04/01 15:04:15;;;;;;;1.23;0.82;;;;;;;;;;4953208;28;20035;-63
2021/04/01 15:06:51;;;;;;;0.95;0.70;;;;;;;;;;4954014;28;20035;-64
2021/04/01 15:09:17;;;;;;;1.42;0.80;;;;;;;;;;4969260;28;20511;-65
2021/04/01 15:11:43;;;;;;;1.90;1.00;;;;;;;;;;4952687;28;20054;-63
2021/04/01 15:14:09;;;;;;;1.00;0.68;;;;;;;;;;4952618;28;20458;-63
2021/04/01 15:16:36;;;;;;;1.52;0.85;;;;;;;;;;4958408;28;20033;-63
2021/04/01 15:19:02;;;;;;;0.65;0.60;;;;;;;;;;4966712;28;20638;-64
2021/04/01 15:21:27;;;;;;;1.13;0.70;;;;;;;;;;4951640;28;20098;-64
2021/04/01 15:23:53;;;;;;;0.93;0.60;;;;;;;;;;4970148;28;20038;-63
2021/04/01 15:26:18;;;;;;;0.95;0.77;;;;;;;;;;4953717;28;20466;-63
2021/04/01 15:28:44;;;;;;;1.13;0.70;;;;;;;;;;4937289;28;20566;-63
2021/04/01 15:31:10;;;;;;;0.60;0.60;;;;;;;;;;4954874;28;20047;-63
2021/04/01 15:33:36;;;;;;;1.05;0.50;;;;;;;;;;4972598;28;20039;-64
2021/04/01 15:36:01;;;;;;;2.80;1.00;;;;;;;;;;4925539;28;20049;-63
2021/04/01 15:38:27;;;;;;;0.73;0.60;;;;;;;;;;4974693;28;20024;-63
2021/04/01 15:40:52;;;;;;;1.23;0.70;;;;;;;;;;4937487;28;20069;-63
2021/04/01 15:43:17;;;;;;;1.83;0.90;;;;;;;;;;4972577;28;20135;-63
2021/04/01 15:45:45;;;;;;;1.67;0.88;;;;;;;;;;4940221;28;20098;-63
2021/04/01 15:48:12;;;;;;;1.52;0.90;;;;;;;;;;4951548;28;20850;-62
2021/04/01 15:50:37;;;;;;;2.45;1.00;;;;;;;;;;4954617;28;20041;-63
2021/04/01 15:53:03;;;;;;;2.17;0.80;;;;;;;;;;4966858;28;20106;-63
2021/04/01 15:55:28;;;;;;;1.52;0.77;;;;;;;;;;4968869;28;20031;-63
2021/04/01 15:57:54;;;;;;;2.03;1.00;;;;;;;;;;4957366;28;20065;-63
2021/04/01 16:00:20;;;;;;;1.00;0.60;;;;;;;;;;4955434;28;20043;-62
2021/04/01 16:02:48;;;;;;;1.48;0.52;;;;;;;;;;4952901;28;20031;-63
2021/04/01 16:05:13;;;;;;;1.02;0.50;;;;;;;;;;4968618;28;20180;-62
2021/04/01 16:07:39;;;;;;;0.52;0.38;;;;;;;;;;4938875;28;20088;-62
2021/04/01 16:10:05;;;;;;;0.93;0.52;;;;;;;;;;4970478;28;20086;-63
2021/04/01 16:12:30;;;;;;;0.82;0.47;;;;;;;;;;4970264;28;20031;-64
2021/04/01 16:14:56;;;;;;;1.15;0.70;;;;;;;;;;4937820;28;20039;-61
2021/04/01 16:17:22;;;;;;;0.93;0.50;;;;;;;;;;4953036;28;20046;-61
2021/04/01 16:19:48;;;;;;;0.30;0.30;;;;;;;;;;4970272;28;20042;-61
2021/04/01 16:22:13;;;;;;;0.70;0.38;;;;;;;;;;4938206;28;20039;-62
2021/04/01 16:24:41;;;;;;;1.92;0.45;;;;;;;;;;4952661;28;20027;-62
2021/04/01 16:27:08;;;;;;;0.65;0.60;;;;;;;;;;4966188;28;20038;-62